sensor_id;sensor_type;location;lat;lon;timestamp;P1;durP1;ratioP1;P2;durP2;ratioP2
16813;SDS011;8524;57.650;11.926;2023-12-07T00:01:41;6.50;;;4.90;;
16813;SDS011;8524;57.650;11.926;2023-12-07T00:04:08;5.30;;;4.43;;
16813;SDS011;8524;57.650;11.926;2023-12-07T00:06:35;6.10;;;5.50;;
16813;SDS011;8524;57.650;11.926;2023-12-07T00:09:03;5.60;;;4.63;;
16813;SDS011;8524;57.650;11.926;2023-12-07T00:11:30;5.90;;;4.73;;
16813;SDS011;8524;57.650;11.926;2023-12-07T00:13:57;6.83;;;4.90;;
16813;SDS011;8524;57.650;11.926;2023-12-07T00:16:24;5.93;;;4.97;;
16813;SDS011;8524;57.650;11.926;2023-12-07T00:18:50;5.17;;;4.67;;
16813;SDS011;8524;57.650;11.926;2023-12-07T00:21:17;6.47;;;5.33;;
16813;SDS011;8524;57.650;11.926;2023-12-07T00:23:44;5.80;;;4.73;;
16813;SDS011;8524;57.650;11.926;2023-12-07T00:26:13;5.03;;;4.20;;
16813;SDS011;8524;57.650;11.926;2023-12-07T00:28:40;6.40;;;4.67;;
16813;SDS011;8524;57.650;11.926;2023-12-07T00:31:06;5.47;;;4.87;;
16813;SDS011;8524;57.650;11.926;2023-12-07T00:33:33;4.70;;;4.20;;
16813;SDS011;8524;57.650;11.926;2023-12-07T00:36:00;5.20;;;4.37;;
16813;SDS011;8524;57.650;11.926;2023-12-07T00:38:27;6.32;;;5.72;;
16813;SDS011;8524;57.650;11.926;2023-12-07T00:40:54;5.53;;;4.83;;
16813;SDS011;8524;57.650;11.926;2023-12-07T00:43:22;5.43;;;4.93;;
16813;SDS011;8524;57.650;11.926;2023-12-07T00:45:49;5.17;;;4.60;;
16813;SDS011;8524;57.650;11.926;2023-12-07T00:48:16;6.17;;;5.00;;
16813;SDS011;8524;57.650;11.926;2023-12-07T00:50:43;6.13;;;5.27;;
16813;SDS011;8524;57.650;11.926;2023-12-07T00:53:10;4.73;;;4.23;;
16813;SDS011;8524;57.650;11.926;2023-12-07T00:55:37;5.65;;;4.78;;
16813;SDS011;8524;57.650;11.926;2023-12-07T00:58:05;5.67;;;4.80;;
16813;SDS011;8524;57.650;11.926;2023-12-07T01:00:33;4.90;;;4.40;;
16813;SDS011;8524;57.650;11.926;2023-12-07T01:03:00;5.90;;;4.70;;
16813;SDS011;8524;57.650;11.926;2023-12-07T01:05:27;5.63;;;4.87;;
16813;SDS011;8524;57.650;11.926;2023-12-07T01:07:54;5.63;;;4.77;;
16813;SDS011;8524;57.650;11.926;2023-12-07T01:10:20;4.70;;;4.20;;
16813;SDS011;8524;57.650;11.926;2023-12-07T01:12:47;5.37;;;4.80;;
16813;SDS011;8524;57.650;11.926;2023-12-07T01:15:15;5.47;;;4.77;;
16813;SDS011;8524;57.650;11.926;2023-12-07T01:17:43;6.27;;;5.30;;
16813;SDS011;8524;57.650;11.926;2023-12-07T01:20:10;5.70;;;5.10;;
16813;SDS011;8524;57.650;11.926;2023-12-07T01:22:38;5.43;;;4.90;;
16813;SDS011;8524;57.650;11.926;2023-12-07T01:25:06;5.43;;;3.90;;
16813;SDS011;8524;57.650;11.926;2023-12-07T01:27:33;5.83;;;4.87;;
16813;SDS011;8524;57.650;11.926;2023-12-07T01:30:00;6.90;;;5.20;;
16813;SDS011;8524;57.650;11.926;2023-12-07T01:32:28;7.67;;;5.77;;
16813;SDS011;8524;57.650;11.926;2023-12-07T01:34:56;5.67;;;4.87;;
16813;SDS011;8524;57.650;11.926;2023-12-07T01:37:23;5.87;;;4.80;;
16813;SDS011;8524;57.650;11.926;2023-12-07T01:39:50;6.13;;;5.03;;
16813;SDS011;8524;57.650;11.926;2023-12-07T01:42:17;6.47;;;5.40;;
16813;SDS011;8524;57.650;11.926;2023-12-07T01:44:44;6.17;;;5.30;;
16813;SDS011;8524;57.650;11.926;2023-12-07T01:47:11;6.90;;;6.30;;
16813;SDS011;8524;57.650;11.926;2023-12-07T01:49:38;5.43;;;4.83;;
16813;SDS011;8524;57.650;11.926;2023-12-07T01:52:07;5.93;;;5.27;;
16813;SDS011;8524;57.650;11.926;2023-12-07T01:54:35;6.57;;;5.10;;
16813;SDS011;8524;57.650;11.926;2023-12-07T01:57:03;5.63;;;4.80;;
16813;SDS011;8524;57.650;11.926;2023-12-07T01:59:30;6.03;;;4.67;;
16813;SDS011;8524;57.650;11.926;2023-12-07T02:01:57;6.20;;;5.60;;
16813;SDS011;8524;57.650;11.926;2023-12-07T02:04:24;6.80;;;5.30;;
16813;SDS011;8524;57.650;11.926;2023-12-07T02:06:51;5.47;;;4.60;;
16813;SDS011;8524;57.650;11.926;2023-12-07T02:09:21;6.97;;;5.80;;
16813;SDS011;8524;57.650;11.926;2023-12-07T02:11:48;6.73;;;5.63;;
16813;SDS011;8524;57.650;11.926;2023-12-07T02:14:15;6.53;;;5.40;;
16813;SDS011;8524;57.650;11.926;2023-12-07T02:16:43;6.87;;;5.83;;
16813;SDS011;8524;57.650;11.926;2023-12-07T02:19:16;6.90;;;5.57;;
16813;SDS011;8524;57.650;11.926;2023-12-07T02:21:58;6.50;;;5.90;;
16813;SDS011;8524;57.650;11.926;2023-12-07T02:24:30;6.20;;;5.60;;
16813;SDS011;8524;57.650;11.926;2023-12-07T02:27:01;6.53;;;5.23;;
16813;SDS011;8524;57.650;11.926;2023-12-07T02:29:28;7.70;;;5.13;;
16813;SDS011;8524;57.650;11.926;2023-12-07T02:31:55;7.67;;;5.67;;
16813;SDS011;8524;57.650;11.926;2023-12-07T02:34:22;5.70;;;5.10;;
16813;SDS011;8524;57.650;11.926;2023-12-07T02:36:49;6.93;;;5.20;;
16813;SDS011;8524;57.650;11.926;2023-12-07T02:39:20;6.67;;;4.90;;
16813;SDS011;8524;57.650;11.926;2023-12-07T02:41:48;6.70;;;4.87;;
16813;SDS011;8524;57.650;11.926;2023-12-07T02:44:17;6.57;;;5.00;;
16813;SDS011;8524;57.650;11.926;2023-12-07T02:46:44;5.73;;;5.03;;
16813;SDS011;8524;57.650;11.926;2023-12-07T02:49:11;6.00;;;5.00;;
16813;SDS011;8524;57.650;11.926;2023-12-07T02:51:38;5.00;;;4.37;;
16813;SDS011;8524;57.650;11.926;2023-12-07T02:54:05;6.57;;;5.88;;
16813;SDS011;8524;57.650;11.926;2023-12-07T02:56:32;5.30;;;4.80;;
16813;SDS011;8524;57.650;11.926;2023-12-07T02:58:59;5.87;;;5.27;;
16813;SDS011;8524;57.650;11.926;2023-12-07T03:01:27;5.20;;;4.67;;
16813;SDS011;8524;57.650;11.926;2023-12-07T03:03:54;7.03;;;4.77;;
16813;SDS011;8524;57.650;11.926;2023-12-07T03:06:20;5.23;;;4.57;;
16813;SDS011;8524;57.650;11.926;2023-12-07T03:08:47;5.97;;;5.03;;
16813;SDS011;8524;57.650;11.926;2023-12-07T03:11:14;6.20;;;5.60;;
16813;SDS011;8524;57.650;11.926;2023-12-07T03:13:41;5.43;;;4.70;;
16813;SDS011;8524;57.650;11.926;2023-12-07T03:16:08;5.67;;;4.93;;
16813;SDS011;8524;57.650;11.926;2023-12-07T03:18:37;5.57;;;4.97;;
16813;SDS011;8524;57.650;11.926;2023-12-07T03:21:04;4.63;;;4.13;;
16813;SDS011;8524;57.650;11.926;2023-12-07T03:23:31;6.00;;;4.80;;
16813;SDS011;8524;57.650;11.926;2023-12-07T03:25:57;5.93;;;5.40;;
16813;SDS011;8524;57.650;11.926;2023-12-07T03:28:24;4.77;;;4.37;;
16813;SDS011;8524;57.650;11.926;2023-12-07T03:30:51;6.28;;;5.68;;
16813;SDS011;8524;57.650;11.926;2023-12-07T03:33:18;5.20;;;4.70;;
16813;SDS011;8524;57.650;11.926;2023-12-07T03:35:46;5.00;;;4.50;;
16813;SDS011;8524;57.650;11.926;2023-12-07T03:38:13;5.35;;;4.63;;
16813;SDS011;8524;57.650;11.926;2023-12-07T03:40:40;5.30;;;4.80;;
16813;SDS011;8524;57.650;11.926;2023-12-07T03:43:06;5.30;;;4.77;;
16813;SDS011;8524;57.650;11.926;2023-12-07T03:45:33;4.13;;;3.73;;
16813;SDS011;8524;57.650;11.926;2023-12-07T03:48:00;5.05;;;4.57;;
16813;SDS011;8524;57.650;11.926;2023-12-07T03:50:27;5.17;;;4.67;;
16813;SDS011;8524;57.650;11.926;2023-12-07T03:52:55;5.10;;;4.40;;
16813;SDS011;8524;57.650;11.926;2023-12-07T03:55:22;4.00;;;3.50;;
16813;SDS011;8524;57.650;11.926;2023-12-07T03:57:49;5.43;;;4.93;;
16813;SDS011;8524;57.650;11.926;2023-12-07T04:00:16;5.53;;;5.03;;
16813;SDS011;8524;57.650;11.926;2023-12-07T04:02:43;4.20;;;3.80;;
16813;SDS011;8524;57.650;11.926;2023-12-07T04:05:10;3.57;;;3.20;;
16813;SDS011;8524;57.650;11.926;2023-12-07T04:07:37;4.15;;;3.75;;
16813;SDS011;8524;57.650;11.926;2023-12-07T04:10:06;4.50;;;3.87;;
16813;SDS011;8524;57.650;11.926;2023-12-07T04:12:33;5.00;;;4.50;;
16813;SDS011;8524;57.650;11.926;2023-12-07T04:15:00;4.37;;;3.73;;
16813;SDS011;8524;57.650;11.926;2023-12-07T04:17:27;5.35;;;4.85;;
16813;SDS011;8524;57.650;11.926;2023-12-07T04:19:54;4.67;;;4.27;;
16813;SDS011;8524;57.650;11.926;2023-12-07T04:22:21;4.60;;;4.20;;
16813;SDS011;8524;57.650;11.926;2023-12-07T04:24:48;4.83;;;4.33;;
16813;SDS011;8524;57.650;11.926;2023-12-07T04:27:16;4.63;;;4.22;;
16813;SDS011;8524;57.650;11.926;2023-12-07T04:29:43;4.53;;;3.57;;
16813;SDS011;8524;57.650;11.926;2023-12-07T04:32:10;5.28;;;4.20;;
16813;SDS011;8524;57.650;11.926;2023-12-07T04:34:36;4.83;;;4.43;;
16813;SDS011;8524;57.650;11.926;2023-12-07T04:37:04;4.53;;;4.00;;
16813;SDS011;8524;57.650;11.926;2023-12-07T04:39:30;4.93;;;4.53;;
16813;SDS011;8524;57.650;11.926;2023-12-07T04:41:57;5.28;;;4.78;;
16813;SDS011;8524;57.650;11.926;2023-12-07T04:44:25;5.00;;;4.47;;
16813;SDS011;8524;57.650;11.926;2023-12-07T04:46:53;4.60;;;4.20;;
16813;SDS011;8524;57.650;11.926;2023-12-07T04:49:20;5.07;;;4.57;;
16813;SDS011;8524;57.650;11.926;2023-12-07T04:51:47;5.45;;;4.95;;
16813;SDS011;8524;57.650;11.926;2023-12-07T04:54:14;4.70;;;3.93;;
16813;SDS011;8524;57.650;11.926;2023-12-07T04:56:41;4.82;;;4.32;;
16813;SDS011;8524;57.650;11.926;2023-12-07T04:59:08;5.73;;;5.13;;
16813;SDS011;8524;57.650;11.926;2023-12-07T05:01:37;6.87;;;4.30;;
16813;SDS011;8524;57.650;11.926;2023-12-07T05:04:04;5.70;;;4.40;;
16813;SDS011;8524;57.650;11.926;2023-12-07T05:06:31;5.22;;;4.72;;
16813;SDS011;8524;57.650;11.926;2023-12-07T05:08:58;5.77;;;4.37;;
16813;SDS011;8524;57.650;11.926;2023-12-07T05:11:25;5.20;;;4.72;;
16813;SDS011;8524;57.650;11.926;2023-12-07T05:13:52;4.37;;;3.97;;
16813;SDS011;8524;57.650;11.926;2023-12-07T05:16:19;4.20;;;3.80;;
16813;SDS011;8524;57.650;11.926;2023-12-07T05:18:47;4.53;;;3.90;;
16813;SDS011;8524;57.650;11.926;2023-12-07T05:21:14;4.77;;;4.23;;
16813;SDS011;8524;57.650;11.926;2023-12-07T05:23:41;6.13;;;4.67;;
16813;SDS011;8524;57.650;11.926;2023-12-07T05:26:08;4.60;;;4.15;;
16813;SDS011;8524;57.650;11.926;2023-12-07T05:28:36;4.77;;;4.27;;
16813;SDS011;8524;57.650;11.926;2023-12-07T05:31:03;4.33;;;3.43;;
16813;SDS011;8524;57.650;11.926;2023-12-07T05:33:30;5.80;;;5.30;;
16813;SDS011;8524;57.650;11.926;2023-12-07T05:35:58;4.47;;;3.60;;
16813;SDS011;8524;57.650;11.926;2023-12-07T05:38:25;6.23;;;4.57;;
16813;SDS011;8524;57.650;11.926;2023-12-07T05:40:52;5.25;;;4.75;;
16813;SDS011;8524;57.650;11.926;2023-12-07T05:43:19;4.47;;;4.07;;
16813;SDS011;8524;57.650;11.926;2023-12-07T05:45:46;4.40;;;3.80;;
16813;SDS011;8524;57.650;11.926;2023-12-07T05:48:12;6.33;;;5.00;;
16813;SDS011;8524;57.650;11.926;2023-12-07T05:50:40;5.30;;;4.30;;
16813;SDS011;8524;57.650;11.926;2023-12-07T05:53:08;5.43;;;4.78;;
16813;SDS011;8524;57.650;11.926;2023-12-07T05:55:35;5.35;;;4.85;;
16813;SDS011;8524;57.650;11.926;2023-12-07T05:58:02;5.50;;;5.00;;
16813;SDS011;8524;57.650;11.926;2023-12-07T06:00:29;5.78;;;5.20;;
16813;SDS011;8524;57.650;11.926;2023-12-07T06:02:56;4.40;;;3.80;;
16813;SDS011;8524;57.650;11.926;2023-12-07T06:05:24;4.20;;;3.80;;
16813;SDS011;8524;57.650;11.926;2023-12-07T06:07:51;5.40;;;4.72;;
16813;SDS011;8524;57.650;11.926;2023-12-07T06:10:20;4.73;;;4.23;;
16813;SDS011;8524;57.650;11.926;2023-12-07T06:12:48;4.55;;;4.13;;
16813;SDS011;8524;57.650;11.926;2023-12-07T06:15:14;6.85;;;4.88;;
16813;SDS011;8524;57.650;11.926;2023-12-07T06:17:41;6.43;;;4.93;;
16813;SDS011;8524;57.650;11.926;2023-12-07T06:20:09;4.70;;;4.30;;
16813;SDS011;8524;57.650;11.926;2023-12-07T06:22:36;7.87;;;6.10;;
16813;SDS011;8524;57.650;11.926;2023-12-07T06:25:04;4.67;;;4.23;;
16813;SDS011;8524;57.650;11.926;2023-12-07T06:27:34;5.10;;;4.60;;
16813;SDS011;8524;57.650;11.926;2023-12-07T06:30:01;5.07;;;4.57;;
16813;SDS011;8524;57.650;11.926;2023-12-07T06:32:30;6.20;;;5.60;;
16813;SDS011;8524;57.650;11.926;2023-12-07T06:34:57;5.43;;;4.90;;
16813;SDS011;8524;57.650;11.926;2023-12-07T06:37:24;6.03;;;4.40;;
16813;SDS011;8524;57.650;11.926;2023-12-07T06:39:51;6.30;;;4.37;;
16813;SDS011;8524;57.650;11.926;2023-12-07T06:42:18;5.17;;;4.67;;
16813;SDS011;8524;57.650;11.926;2023-12-07T06:44:47;4.77;;;4.20;;
16813;SDS011;8524;57.650;11.926;2023-12-07T06:47:14;5.43;;;4.40;;
16813;SDS011;8524;57.650;11.926;2023-12-07T06:49:41;4.90;;;4.37;;
16813;SDS011;8524;57.650;11.926;2023-12-07T06:52:08;5.53;;;4.97;;
16813;SDS011;8524;57.650;11.926;2023-12-07T06:54:36;5.40;;;4.90;;
16813;SDS011;8524;57.650;11.926;2023-12-07T06:57:03;5.13;;;4.63;;
16813;SDS011;8524;57.650;11.926;2023-12-07T06:59:31;5.30;;;4.53;;
16813;SDS011;8524;57.650;11.926;2023-12-07T07:02:00;6.00;;;5.37;;
16813;SDS011;8524;57.650;11.926;2023-12-07T07:04:27;5.63;;;4.37;;
16813;SDS011;8524;57.650;11.926;2023-12-07T07:06:54;5.70;;;4.97;;
16813;SDS011;8524;57.650;11.926;2023-12-07T07:09:21;6.07;;;5.40;;
16813;SDS011;8524;57.650;11.926;2023-12-07T07:11:48;5.30;;;4.80;;
16813;SDS011;8524;57.650;11.926;2023-12-07T07:14:15;5.90;;;5.20;;
16813;SDS011;8524;57.650;11.926;2023-12-07T07:16:42;5.80;;;4.63;;
16813;SDS011;8524;57.650;11.926;2023-12-07T07:19:11;8.40;;;6.20;;
16813;SDS011;8524;57.650;11.926;2023-12-07T07:21:38;8.17;;;6.03;;
16813;SDS011;8524;57.650;11.926;2023-12-07T07:24:05;5.87;;;5.27;;
16813;SDS011;8524;57.650;11.926;2023-12-07T07:26:32;5.73;;;4.90;;
16813;SDS011;8524;57.650;11.926;2023-12-07T07:28:59;5.87;;;4.77;;
16813;SDS011;8524;57.650;11.926;2023-12-07T07:31:28;5.83;;;4.97;;
16813;SDS011;8524;57.650;11.926;2023-12-07T07:33:55;7.63;;;5.83;;
16813;SDS011;8524;57.650;11.926;2023-12-07T07:36:23;5.80;;;4.80;;
16813;SDS011;8524;57.650;11.926;2023-12-07T07:38:50;9.70;;;6.20;;
16813;SDS011;8524;57.650;11.926;2023-12-07T07:41:17;8.27;;;5.53;;
16813;SDS011;8524;57.650;11.926;2023-12-07T07:43:43;7.68;;;6.85;;
16813;SDS011;8524;57.650;11.926;2023-12-07T07:46:10;6.00;;;5.40;;
16813;SDS011;8524;57.650;11.926;2023-12-07T07:48:37;5.70;;;4.60;;
16813;SDS011;8524;57.650;11.926;2023-12-07T07:51:04;5.37;;;4.43;;
16813;SDS011;8524;57.650;11.926;2023-12-07T07:53:33;5.80;;;4.90;;
16813;SDS011;8524;57.650;11.926;2023-12-07T07:55:59;7.80;;;4.83;;
16813;SDS011;8524;57.650;11.926;2023-12-07T07:58:26;5.17;;;4.50;;
16813;SDS011;8524;57.650;11.926;2023-12-07T08:00:53;6.80;;;5.20;;
16813;SDS011;8524;57.650;11.926;2023-12-07T08:03:20;5.83;;;4.67;;
16813;SDS011;8524;57.650;11.926;2023-12-07T08:05:47;5.40;;;4.77;;
16813;SDS011;8524;57.650;11.926;2023-12-07T08:08:14;6.90;;;5.57;;
16813;SDS011;8524;57.650;11.926;2023-12-07T08:10:42;6.40;;;5.27;;
16813;SDS011;8524;57.650;11.926;2023-12-07T08:13:09;5.47;;;4.87;;
16813;SDS011;8524;57.650;11.926;2023-12-07T08:15:36;6.73;;;4.90;;
16813;SDS011;8524;57.650;11.926;2023-12-07T08:18:03;5.93;;;5.23;;
16813;SDS011;8524;57.650;11.926;2023-12-07T08:20:30;6.03;;;5.33;;
16813;SDS011;8524;57.650;11.926;2023-12-07T08:22:57;5.63;;;4.27;;
16813;SDS011;8524;57.650;11.926;2023-12-07T08:25:24;4.93;;;4.17;;
16813;SDS011;8524;57.650;11.926;2023-12-07T08:27:53;5.15;;;4.65;;
16813;SDS011;8524;57.650;11.926;2023-12-07T08:30:19;6.63;;;4.33;;
16813;SDS011;8524;57.650;11.926;2023-12-07T08:32:46;4.83;;;4.20;;
16813;SDS011;8524;57.650;11.926;2023-12-07T08:35:13;5.40;;;3.73;;
16813;SDS011;8524;57.650;11.926;2023-12-07T08:37:40;6.07;;;4.70;;
16813;SDS011;8524;57.650;11.926;2023-12-07T08:40:07;5.27;;;4.70;;
16813;SDS011;8524;57.650;11.926;2023-12-07T08:42:37;7.10;;;5.43;;
16813;SDS011;8524;57.650;11.926;2023-12-07T08:45:05;4.60;;;4.17;;
16813;SDS011;8524;57.650;11.926;2023-12-07T08:47:33;6.10;;;5.00;;
16813;SDS011;8524;57.650;11.926;2023-12-07T08:50:00;5.23;;;4.10;;
16813;SDS011;8524;57.650;11.926;2023-12-07T08:52:27;5.72;;;4.85;;
16813;SDS011;8524;57.650;11.926;2023-12-07T08:54:54;5.73;;;4.20;;
16813;SDS011;8524;57.650;11.926;2023-12-07T08:57:21;5.00;;;4.00;;
16813;SDS011;8524;57.650;11.926;2023-12-07T08:59:48;5.20;;;4.13;;
16813;SDS011;8524;57.650;11.926;2023-12-07T09:02:16;4.63;;;3.97;;
16813;SDS011;8524;57.650;11.926;2023-12-07T09:04:44;5.80;;;4.70;;
16813;SDS011;8524;57.650;11.926;2023-12-07T09:07:10;5.17;;;4.47;;
16813;SDS011;8524;57.650;11.926;2023-12-07T09:09:40;5.57;;;4.47;;
16813;SDS011;8524;57.650;11.926;2023-12-07T09:12:12;4.93;;;4.10;;
16813;SDS011;8524;57.650;11.926;2023-12-07T09:14:39;4.57;;;4.07;;
16813;SDS011;8524;57.650;11.926;2023-12-07T09:17:05;5.27;;;4.40;;
16813;SDS011;8524;57.650;11.926;2023-12-07T09:19:34;4.97;;;4.47;;
16813;SDS011;8524;57.650;11.926;2023-12-07T09:22:00;4.87;;;4.37;;
16813;SDS011;8524;57.650;11.926;2023-12-07T09:24:27;5.60;;;4.30;;
16813;SDS011;8524;57.650;11.926;2023-12-07T09:26:54;5.40;;;4.47;;
16813;SDS011;8524;57.650;11.926;2023-12-07T09:29:21;4.57;;;3.70;;
16813;SDS011;8524;57.650;11.926;2023-12-07T09:31:48;5.03;;;4.23;;
16813;SDS011;8524;57.650;11.926;2023-12-07T09:34:15;4.70;;;4.13;;
16813;SDS011;8524;57.650;11.926;2023-12-07T09:36:44;6.10;;;4.50;;
16813;SDS011;8524;57.650;11.926;2023-12-07T09:39:11;6.37;;;4.40;;
16813;SDS011;8524;57.650;11.926;2023-12-07T09:41:39;5.30;;;4.47;;
16813;SDS011;8524;57.650;11.926;2023-12-07T09:44:08;5.20;;;4.53;;
16813;SDS011;8524;57.650;11.926;2023-12-07T09:46:35;5.47;;;4.63;;
16813;SDS011;8524;57.650;11.926;2023-12-07T09:49:04;4.83;;;4.17;;
16813;SDS011;8524;57.650;11.926;2023-12-07T09:51:31;6.45;;;5.07;;
16813;SDS011;8524;57.650;11.926;2023-12-07T09:54:00;5.00;;;4.37;;
16813;SDS011;8524;57.650;11.926;2023-12-07T09:56:30;6.57;;;4.67;;
16813;SDS011;8524;57.650;11.926;2023-12-07T09:58:57;7.33;;;4.47;;
16813;SDS011;8524;57.650;11.926;2023-12-07T10:01:27;5.10;;;4.60;;
16813;SDS011;8524;57.650;11.926;2023-12-07T10:06:44;5.40;;;4.47;;
16813;SDS011;8524;57.650;11.926;2023-12-07T10:09:14;5.47;;;4.30;;
16813;SDS011;8524;57.650;11.926;2023-12-07T10:11:40;5.30;;;4.23;;
16813;SDS011;8524;57.650;11.926;2023-12-07T10:14:08;6.60;;;4.10;;
16813;SDS011;8524;57.650;11.926;2023-12-07T10:16:35;5.27;;;4.40;;
16813;SDS011;8524;57.650;11.926;2023-12-07T10:19:12;4.83;;;4.30;;
16813;SDS011;8524;57.650;11.926;2023-12-07T10:21:39;5.40;;;4.43;;
16813;SDS011;8524;57.650;11.926;2023-12-07T10:24:07;6.77;;;4.40;;
16813;SDS011;8524;57.650;11.926;2023-12-07T10:26:37;4.73;;;3.97;;
16813;SDS011;8524;57.650;11.926;2023-12-07T10:29:04;6.30;;;4.87;;
16813;SDS011;8524;57.650;11.926;2023-12-07T10:31:31;5.50;;;4.63;;
16813;SDS011;8524;57.650;11.926;2023-12-07T10:34:00;5.77;;;4.93;;
16813;SDS011;8524;57.650;11.926;2023-12-07T10:36:27;6.17;;;3.77;;
16813;SDS011;8524;57.650;11.926;2023-12-07T10:38:54;6.17;;;4.30;;
16813;SDS011;8524;57.650;11.926;2023-12-07T10:41:21;5.80;;;4.47;;
16813;SDS011;8524;57.650;11.926;2023-12-07T10:43:53;5.13;;;4.23;;
16813;SDS011;8524;57.650;11.926;2023-12-07T10:46:23;5.47;;;4.07;;
16813;SDS011;8524;57.650;11.926;2023-12-07T10:48:54;6.37;;;4.40;;
16813;SDS011;8524;57.650;11.926;2023-12-07T10:51:27;4.93;;;3.97;;
16813;SDS011;8524;57.650;11.926;2023-12-07T10:53:57;5.75;;;5.15;;
16813;SDS011;8524;57.650;11.926;2023-12-07T10:56:28;11.80;;;5.07;;
16813;SDS011;8524;57.650;11.926;2023-12-07T10:59:00;6.97;;;4.60;;
16813;SDS011;8524;57.650;11.926;2023-12-07T11:01:27;6.70;;;5.30;;
16813;SDS011;8524;57.650;11.926;2023-12-07T11:03:56;5.57;;;4.90;;
16813;SDS011;8524;57.650;11.926;2023-12-07T11:06:24;5.53;;;4.30;;
16813;SDS011;8524;57.650;11.926;2023-12-07T11:08:51;6.50;;;4.50;;
16813;SDS011;8524;57.650;11.926;2023-12-07T11:11:24;7.17;;;4.67;;
16813;SDS011;8524;57.650;11.926;2023-12-07T11:13:57;8.20;;;4.50;;
16813;SDS011;8524;57.650;11.926;2023-12-07T11:16:28;5.20;;;4.23;;
16813;SDS011;8524;57.650;11.926;2023-12-07T11:18:56;7.17;;;4.60;;
16813;SDS011;8524;57.650;11.926;2023-12-07T11:21:23;5.87;;;4.53;;
16813;SDS011;8524;57.650;11.926;2023-12-07T11:23:50;5.40;;;4.63;;
16813;SDS011;8524;57.650;11.926;2023-12-07T11:26:19;6.50;;;5.70;;
16813;SDS011;8524;57.650;11.926;2023-12-07T11:28:46;5.83;;;4.73;;
16813;SDS011;8524;57.650;11.926;2023-12-07T11:31:15;6.57;;;5.20;;
16813;SDS011;8524;57.650;11.926;2023-12-07T11:33:42;6.30;;;4.80;;
16813;SDS011;8524;57.650;11.926;2023-12-07T11:36:10;6.77;;;4.57;;
16813;SDS011;8524;57.650;11.926;2023-12-07T11:38:39;6.70;;;4.40;;
16813;SDS011;8524;57.650;11.926;2023-12-07T11:41:51;5.27;;;4.60;;
16813;SDS011;8524;57.650;11.926;2023-12-07T11:44:20;5.83;;;4.53;;
16813;SDS011;8524;57.650;11.926;2023-12-07T11:46:52;5.60;;;5.00;;
16813;SDS011;8524;57.650;11.926;2023-12-07T11:49:20;6.10;;;5.03;;
16813;SDS011;8524;57.650;11.926;2023-12-07T11:51:48;6.40;;;5.03;;
16813;SDS011;8524;57.650;11.926;2023-12-07T11:54:15;6.60;;;5.53;;
16813;SDS011;8524;57.650;11.926;2023-12-07T11:56:42;5.93;;;5.17;;
16813;SDS011;8524;57.650;11.926;2023-12-07T11:59:09;6.10;;;5.47;;
16813;SDS011;8524;57.650;11.926;2023-12-07T12:01:37;8.37;;;5.40;;
16813;SDS011;8524;57.650;11.926;2023-12-07T12:04:06;7.47;;;5.30;;
16813;SDS011;8524;57.650;11.926;2023-12-07T12:06:34;7.43;;;4.90;;
16813;SDS011;8524;57.650;11.926;2023-12-07T12:09:01;6.43;;;5.20;;
16813;SDS011;8524;57.650;11.926;2023-12-07T12:11:28;12.27;;;6.10;;
16813;SDS011;8524;57.650;11.926;2023-12-07T12:13:55;7.33;;;5.20;;
16813;SDS011;8524;57.650;11.926;2023-12-07T12:16:22;6.10;;;4.77;;
16813;SDS011;8524;57.650;11.926;2023-12-07T12:18:49;6.00;;;4.77;;
16813;SDS011;8524;57.650;11.926;2023-12-07T12:21:18;7.20;;;5.63;;
16813;SDS011;8524;57.650;11.926;2023-12-07T12:23:47;6.07;;;5.00;;
16813;SDS011;8524;57.650;11.926;2023-12-07T12:26:14;7.20;;;5.67;;
16813;SDS011;8524;57.650;11.926;2023-12-07T12:28:41;7.30;;;5.27;;
16813;SDS011;8524;57.650;11.926;2023-12-07T12:31:10;7.90;;;5.07;;
16813;SDS011;8524;57.650;11.926;2023-12-07T12:33:38;6.23;;;5.63;;
16813;SDS011;8524;57.650;11.926;2023-12-07T12:36:06;6.60;;;5.90;;
16813;SDS011;8524;57.650;11.926;2023-12-07T12:38:36;5.63;;;5.00;;
16813;SDS011;8524;57.650;11.926;2023-12-07T12:41:04;6.93;;;4.97;;
16813;SDS011;8524;57.650;11.926;2023-12-07T12:43:31;5.33;;;4.50;;
16813;SDS011;8524;57.650;11.926;2023-12-07T12:45:59;9.20;;;5.30;;
16813;SDS011;8524;57.650;11.926;2023-12-07T12:48:25;5.27;;;4.70;;
16813;SDS011;8524;57.650;11.926;2023-12-07T12:50:52;5.40;;;4.67;;
16813;SDS011;8524;57.650;11.926;2023-12-07T12:53:20;7.00;;;4.83;;
16813;SDS011;8524;57.650;11.926;2023-12-07T12:55:48;5.77;;;4.33;;
16813;SDS011;8524;57.650;11.926;2023-12-07T12:58:15;6.43;;;5.43;;
16813;SDS011;8524;57.650;11.926;2023-12-07T13:00:42;6.53;;;5.23;;
16813;SDS011;8524;57.650;11.926;2023-12-07T13:03:09;6.10;;;5.10;;
16813;SDS011;8524;57.650;11.926;2023-12-07T13:05:38;10.33;;;6.17;;
16813;SDS011;8524;57.650;11.926;2023-12-07T13:08:05;8.20;;;6.07;;
16813;SDS011;8524;57.650;11.926;2023-12-07T13:10:33;7.03;;;5.07;;
16813;SDS011;8524;57.650;11.926;2023-12-07T13:13:01;9.43;;;5.43;;
16813;SDS011;8524;57.650;11.926;2023-12-07T13:15:29;7.90;;;5.50;;
16813;SDS011;8524;57.650;11.926;2023-12-07T13:17:56;6.87;;;5.40;;
16813;SDS011;8524;57.650;11.926;2023-12-07T13:20:23;6.33;;;4.70;;
16813;SDS011;8524;57.650;11.926;2023-12-07T13:22:49;6.73;;;5.50;;
16813;SDS011;8524;57.650;11.926;2023-12-07T13:25:16;13.30;;;8.37;;
16813;SDS011;8524;57.650;11.926;2023-12-07T13:27:43;10.37;;;8.00;;
16813;SDS011;8524;57.650;11.926;2023-12-07T13:30:12;11.50;;;9.37;;
16813;SDS011;8524;57.650;11.926;2023-12-07T13:32:39;9.43;;;7.60;;
16813;SDS011;8524;57.650;11.926;2023-12-07T13:35:06;10.23;;;7.70;;
16813;SDS011;8524;57.650;11.926;2023-12-07T13:37:33;8.47;;;6.20;;
16813;SDS011;8524;57.650;11.926;2023-12-07T13:40:01;7.47;;;5.60;;
16813;SDS011;8524;57.650;11.926;2023-12-07T13:42:29;6.03;;;4.83;;
16813;SDS011;8524;57.650;11.926;2023-12-07T13:44:57;7.93;;;5.90;;
16813;SDS011;8524;57.650;11.926;2023-12-07T13:47:26;6.10;;;4.90;;
16813;SDS011;8524;57.650;11.926;2023-12-07T13:49:56;6.57;;;5.37;;
16813;SDS011;8524;57.650;11.926;2023-12-07T13:52:23;6.33;;;4.97;;
16813;SDS011;8524;57.650;11.926;2023-12-07T13:54:50;7.20;;;5.63;;
16813;SDS011;8524;57.650;11.926;2023-12-07T13:57:18;7.82;;;6.97;;
16813;SDS011;8524;57.650;11.926;2023-12-07T13:59:45;14.20;;;9.63;;
16813;SDS011;8524;57.650;11.926;2023-12-07T14:02:12;12.93;;;9.40;;
16813;SDS011;8524;57.650;11.926;2023-12-07T14:04:41;12.87;;;7.73;;
16813;SDS011;8524;57.650;11.926;2023-12-07T14:07:09;9.43;;;6.07;;
16813;SDS011;8524;57.650;11.926;2023-12-07T14:09:37;17.33;;;8.37;;
16813;SDS011;8524;57.650;11.926;2023-12-07T14:12:04;9.17;;;7.43;;
16813;SDS011;8524;57.650;11.926;2023-12-07T14:14:31;10.33;;;7.37;;
16813;SDS011;8524;57.650;11.926;2023-12-07T14:16:58;9.27;;;6.77;;
16813;SDS011;8524;57.650;11.926;2023-12-07T14:19:25;8.93;;;6.70;;
16813;SDS011;8524;57.650;11.926;2023-12-07T14:21:54;19.43;;;12.80;;
16813;SDS011;8524;57.650;11.926;2023-12-07T14:24:24;13.87;;;10.90;;
16813;SDS011;8524;57.650;11.926;2023-12-07T14:26:51;13.90;;;10.53;;
16813;SDS011;8524;57.650;11.926;2023-12-07T14:29:19;8.00;;;6.83;;
16813;SDS011;8524;57.650;11.926;2023-12-07T14:31:48;6.50;;;5.80;;
16813;SDS011;8524;57.650;11.926;2023-12-07T14:34:15;7.17;;;5.87;;
16813;SDS011;8524;57.650;11.926;2023-12-07T14:36:42;6.47;;;5.70;;
16813;SDS011;8524;57.650;11.926;2023-12-07T14:39:11;6.40;;;5.43;;
16813;SDS011;8524;57.650;11.926;2023-12-07T14:41:42;8.37;;;6.90;;
16813;SDS011;8524;57.650;11.926;2023-12-07T14:44:10;7.70;;;6.90;;
16813;SDS011;8524;57.650;11.926;2023-12-07T14:46:37;7.87;;;6.20;;
16813;SDS011;8524;57.650;11.926;2023-12-07T14:49:03;6.47;;;5.63;;
16813;SDS011;8524;57.650;11.926;2023-12-07T14:51:30;10.47;;;9.33;;
16813;SDS011;8524;57.650;11.926;2023-12-07T14:53:57;9.37;;;7.97;;